sensor_id;sensor_type;location;lat;lon;timestamp;pressure;altitude;pressure_sealevel;temperature;humidity
32875;BME280;40468;42.128;24.750;2023-02-08T00:01:29;101499.22;;;-0.95;47.56
32875;BME280;40468;42.128;24.750;2023-02-08T00:03:01;101490.56;;;-1.00;47.77
32875;BME280;40468;42.128;24.750;2023-02-08T00:04:31;101491.44;;;-1.00;47.83
32875;BME280;40468;42.128;24.750;2023-02-08T00:06:05;101497.41;;;-0.99;47.67
32875;BME280;40468;42.128;24.750;2023-02-08T00:07:38;101493.03;;;-1.03;47.77
32875;BME280;40468;42.128;24.750;2023-02-08T00:09:10;101499.72;;;-1.07;47.83
32875;BME280;40468;42.128;24.750;2023-02-08T00:10:42;101501.50;;;-1.06;47.78
32875;BME280;40468;42.128;24.750;2023-02-08T00:12:13;101502.34;;;-1.05;48.01
32875;BME280;40468;42.128;24.750;2023-02-08T00:13:45;101498.06;;;-1.06;48.00
32875;BME280;40468;42.128;24.750;2023-02-08T00:15:17;101508.25;;;-1.08;47.99
32875;BME280;40468;42.128;24.750;2023-02-08T00:16:49;101507.31;;;-1.10;48.11
32875;BME280;40468;42.128;24.750;2023-02-08T00:18:21;101509.78;;;-1.13;48.24
32875;BME280;40468;42.128;24.750;2023-02-08T00:19:53;101506.34;;;-1.15;48.36
32875;BME280;40468;42.128;24.750;2023-02-08T00:21:25;101516.56;;;-1.15;48.40
32875;BME280;40468;42.128;24.750;2023-02-08T00:22:58;101520.84;;;-1.14;48.44
32875;BME280;40468;42.128;24.750;2023-02-08T00:24:30;101520.00;;;-1.13;48.35
32875;BME280;40468;42.128;24.750;2023-02-08T00:26:02;101515.63;;;-1.17;48.49
32875;BME280;40468;42.128;24.750;2023-02-08T00:27:34;101518.13;;;-1.19;48.71
32875;BME280;40468;42.128;24.750;2023-02-08T00:29:06;101521.50;;;-1.21;48.82
32875;BME280;40468;42.128;24.750;2023-02-08T00:30:38;101523.06;;;-1.25;48.86
32875;BME280;40468;42.128;24.750;2023-02-08T00:32:10;101509.97;;;-1.35;48.92
32875;BME280;40468;42.128;24.750;2023-02-08T00:33:41;101522.19;;;-1.25;48.91
32875;BME280;40468;42.128;24.750;2023-02-08T00:35:13;101520.50;;;-1.25;48.79
32875;BME280;40468;42.128;24.750;2023-02-08T00:36:45;101520.50;;;-1.25;48.91
32875;BME280;40468;42.128;24.750;2023-02-08T00:38:18;101521.34;;;-1.26;48.84
32875;BME280;40468;42.128;24.750;2023-02-08T00:39:50;101526.44;;;-1.26;48.64
32875;BME280;40468;42.128;24.750;2023-02-08T00:41:22;101526.53;;;-1.23;48.97
32875;BME280;40468;42.128;24.750;2023-02-08T00:42:54;101531.66;;;-1.23;48.88
32875;BME280;40468;42.128;24.750;2023-02-08T00:44:26;101534.97;;;-1.25;49.04
32875;BME280;40468;42.128;24.750;2023-02-08T00:45:58;101538.31;;;-1.28;48.99
32875;BME280;40468;42.128;24.750;2023-02-08T00:47:31;101541.53;;;-1.33;49.32
32875;BME280;40468;42.128;24.750;2023-02-08T00:49:02;101542.34;;;-1.36;49.32
32875;BME280;40468;42.128;24.750;2023-02-08T00:50:34;101547.44;;;-1.36;49.12
32875;BME280;40468;42.128;24.750;2023-02-08T00:52:05;101544.06;;;-1.35;49.26
32875;BME280;40468;42.128;24.750;2023-02-08T00:53:40;101544.88;;;-1.36;49.30
32875;BME280;40468;42.128;24.750;2023-02-08T00:55:12;101534.53;;;-1.39;49.28
32875;BME280;40468;42.128;24.750;2023-02-08T00:56:44;101548.34;;;-1.34;49.37
32875;BME280;40468;42.128;24.750;2023-02-08T00:58:16;101546.63;;;-1.35;49.18
32875;BME280;40468;42.128;24.750;2023-02-08T00:59:47;101548.34;;;-1.34;49.11
32875;BME280;40468;42.128;24.750;2023-02-08T01:01:19;101544.75;;;-1.39;49.62
32875;BME280;40468;42.128;24.750;2023-02-08T01:02:51;101540.44;;;-1.42;49.52
32875;BME280;40468;42.128;24.750;2023-02-08T01:04:23;101540.34;;;-1.45;49.59
32875;BME280;40468;42.128;24.750;2023-02-08T01:05:59;101537.94;;;-1.40;49.52
32875;BME280;40468;42.128;24.750;2023-02-08T01:07:31;101535.38;;;-1.40;49.63
32875;BME280;40468;42.128;24.750;2023-02-08T01:09:04;101535.44;;;-1.39;49.51
32875;BME280;40468;42.128;24.750;2023-02-08T01:10:36;101544.81;;;-1.38;49.43
32875;BME280;40468;42.128;24.750;2023-02-08T01:12:08;101540.53;;;-1.39;49.35
32875;BME280;40468;42.128;24.750;2023-02-08T01:13:40;101539.63;;;-1.41;49.54
32875;BME280;40468;42.128;24.750;2023-02-08T01:15:12;101538.69;;;-1.43;49.49
32875;BME280;40468;42.128;24.750;2023-02-08T01:16:44;101542.06;;;-1.44;49.56
32875;BME280;40468;42.128;24.750;2023-02-08T01:18:15;101542.00;;;-1.45;49.59
32875;BME280;40468;42.128;24.750;2023-02-08T01:19:47;101541.97;;;-1.47;49.66
32875;BME280;40468;42.128;24.750;2023-02-08T01:21:20;101535.16;;;-1.48;49.63
32875;BME280;40468;42.128;24.750;2023-02-08T01:22:52;101534.31;;;-1.47;49.59
32875;BME280;40468;42.128;24.750;2023-02-08T01:24:25;101539.44;;;-1.47;49.51
32875;BME280;40468;42.128;24.750;2023-02-08T01:25:57;101539.47;;;-1.45;49.50
32875;BME280;40468;42.128;24.750;2023-02-08T01:27:28;101544.53;;;-1.47;49.67
32875;BME280;40468;42.128;24.750;2023-02-08T01:29:00;101541.03;;;-1.50;49.61
32875;BME280;40468;42.128;24.750;2023-02-08T01:30:32;101541.81;;;-1.51;49.60
32875;BME280;40468;42.128;24.750;2023-02-08T01:32:04;101545.28;;;-1.51;49.72
32875;BME280;40468;42.128;24.750;2023-02-08T01:33:35;101546.13;;;-1.50;49.66
32875;BME280;40468;42.128;24.750;2023-02-08T01:35:07;101536.72;;;-1.51;49.71
32875;BME280;40468;42.128;24.750;2023-02-08T01:36:39;101551.09;;;-1.55;49.77
32875;BME280;40468;42.128;24.750;2023-02-08T01:38:11;101541.59;;;-1.59;49.80
32875;BME280;40468;42.128;24.750;2023-02-08T01:39:44;101540.75;;;-1.58;49.81
32875;BME280;40468;42.128;24.750;2023-02-08T01:41:18;101543.28;;;-1.59;49.84
32875;BME280;40468;42.128;24.750;2023-02-08T01:42:50;101546.59;;;-1.62;49.81
32875;BME280;40468;42.128;24.750;2023-02-08T01:46:32;101543.22;;;-1.61;49.81
32875;BME280;40468;42.128;24.750;2023-02-08T01:48:08;101545.84;;;-1.59;49.77
32875;BME280;40468;42.128;24.750;2023-02-08T01:49:41;101550.94;;;-1.59;49.90
32875;BME280;40468;42.128;24.750;2023-02-08T01:51:16;101559.41;;;-1.61;49.94
32875;BME280;40468;42.128;24.750;2023-02-08T01:52:50;101545.75;;;-1.63;49.75
32875;BME280;40468;42.128;24.750;2023-02-08T01:54:24;101555.22;;;-1.58;49.86
32875;BME280;40468;42.128;24.750;2023-02-08T01:56:00;101560.28;;;-1.60;49.79
32875;BME280;40468;42.128;24.750;2023-02-08T01:57:33;101549.19;;;-1.61;49.93
32875;BME280;40468;42.128;24.750;2023-02-08T01:59:08;101557.78;;;-1.58;49.87
32875;BME280;40468;42.128;24.750;2023-02-08T02:00:40;101561.28;;;-1.56;49.83
32875;BME280;40468;42.128;24.750;2023-02-08T02:02:16;101556.91;;;-1.59;49.77
32875;BME280;40468;42.128;24.750;2023-02-08T02:03:49;101561.16;;;-1.59;49.78
32875;BME280;40468;42.128;24.750;2023-02-08T02:05:24;101566.31;;;-1.58;49.98
32875;BME280;40468;42.128;24.750;2023-02-08T02:06:58;101564.59;;;-1.59;49.69
32875;BME280;40468;42.128;24.750;2023-02-08T02:08:31;101569.69;;;-1.59;49.87
32875;BME280;40468;42.128;24.750;2023-02-08T02:10:08;101554.38;;;-1.59;49.83
32875;BME280;40468;42.128;24.750;2023-02-08T02:11:42;101553.34;;;-1.64;49.68
32875;BME280;40468;42.128;24.750;2023-02-08T02:13:18;101562.03;;;-1.59;49.74
32875;BME280;40468;42.128;24.750;2023-02-08T02:14:51;101549.19;;;-1.61;49.69
32875;BME280;40468;42.128;24.750;2023-02-08T02:16:23;101562.03;;;-1.59;49.70
32875;BME280;40468;42.128;24.750;2023-02-08T02:17:55;101557.69;;;-1.62;49.87
32875;BME280;40468;42.128;24.750;2023-02-08T02:19:43;101557.59;;;-1.65;49.95
32875;BME280;40468;42.128;24.750;2023-02-08T02:21:35;101568.59;;;-1.66;49.92
32875;BME280;40468;42.128;24.750;2023-02-08T02:25:49;101566.84;;;-1.68;49.58
32875;BME280;40468;42.128;24.750;2023-02-08T02:27:33;101571.94;;;-1.68;49.74
32875;BME280;40468;42.128;24.750;2023-02-08T02:29:39;101574.44;;;-1.70;49.95
32875;BME280;40468;42.128;24.750;2023-02-08T02:31:46;101566.75;;;-1.71;49.98
32875;BME280;40468;42.128;24.750;2023-02-08T02:33:37;101570.16;;;-1.71;49.58
32875;BME280;40468;42.128;24.750;2023-02-08T02:35:15;101572.72;;;-1.71;50.00
32875;BME280;40468;42.128;24.750;2023-02-08T02:36:52;101577.72;;;-1.74;50.10
32875;BME280;40468;42.128;24.750;2023-02-08T02:38:39;101575.97;;;-1.75;50.01
32875;BME280;40468;42.128;24.750;2023-02-08T02:40:20;101581.91;;;-1.76;49.99
32875;BME280;40468;42.128;24.750;2023-02-08T02:41:59;101569.03;;;-1.79;50.09
32875;BME280;40468;42.128;24.750;2023-02-08T02:43:54;101579.25;;;-1.79;50.07
32875;BME280;40468;42.128;24.750;2023-02-08T02:45:33;101582.66;;;-1.78;50.10
32875;BME280;40468;42.128;24.750;2023-02-08T02:47:11;101585.19;;;-1.80;50.07
32875;BME280;40468;42.128;24.750;2023-02-08T02:48:52;101580.84;;;-1.83;50.27
32875;BME280;40468;42.128;24.750;2023-02-08T02:50:32;101584.25;;;-1.82;50.27
32875;BME280;40468;42.128;24.750;2023-02-08T02:52:08;101587.63;;;-1.83;50.18
32875;BME280;40468;42.128;24.750;2023-02-08T02:53:46;101598.00;;;-1.78;50.11
32875;BME280;40468;42.128;24.750;2023-02-08T02:55:22;101590.97;;;-1.84;50.28
32875;BME280;40468;42.128;24.750;2023-02-08T02:57:00;101596.94;;;-1.84;50.08
32875;BME280;40468;42.128;24.750;2023-02-08T02:58:35;101596.19;;;-1.81;50.11
32875;BME280;40468;42.128;24.750;2023-02-08T03:00:10;101597.94;;;-1.80;50.25
32875;BME280;40468;42.128;24.750;2023-02-08T03:01:44;101606.31;;;-1.84;50.24
32875;BME280;40468;42.128;24.750;2023-02-08T03:03:19;101611.31;;;-1.87;50.21
32875;BME280;40468;42.128;24.750;2023-02-08T03:04:55;101608.84;;;-1.84;50.13
32875;BME280;40468;42.128;24.750;2023-02-08T03:06:35;101613.09;;;-1.85;50.25
32875;BME280;40468;42.128;24.750;2023-02-08T03:08:23;101606.19;;;-1.87;50.20
32875;BME280;40468;42.128;24.750;2023-02-08T03:10:06;101615.50;;;-1.89;50.21
32875;BME280;40468;42.128;24.750;2023-02-08T03:11:46;101612.97;;;-1.89;50.24
32875;BME280;40468;42.128;24.750;2023-02-08T03:13:26;101614.59;;;-1.91;50.28
32875;BME280;40468;42.128;24.750;2023-02-08T03:15:08;101615.41;;;-1.92;50.21
32875;BME280;40468;42.128;24.750;2023-02-08T03:17:00;101618.75;;;-1.93;50.14
32875;BME280;40468;42.128;24.750;2023-02-08T03:18:36;101624.78;;;-1.91;50.26
32875;BME280;40468;42.128;24.750;2023-02-08T03:20:15;101619.38;;;-2.00;50.29
32875;BME280;40468;42.128;24.750;2023-02-08T03:21:53;101622.94;;;-1.95;50.22
32875;BME280;40468;42.128;24.750;2023-02-08T03:23:27;101629.69;;;-1.97;50.49
32875;BME280;40468;42.128;24.750;2023-02-08T03:25:05;101623.75;;;-1.96;50.33
32875;BME280;40468;42.128;24.750;2023-02-08T03:26:43;101627.13;;;-1.97;50.64
32875;BME280;40468;42.128;24.750;2023-02-08T03:28:22;101625.38;;;-1.98;50.66
32875;BME280;40468;42.128;24.750;2023-02-08T03:29:59;101615.78;;;-2.06;50.60
32875;BME280;40468;42.128;24.750;2023-02-08T03:31:39;101631.38;;;-1.98;50.79
32875;BME280;40468;42.128;24.750;2023-02-08T03:33:18;101627.06;;;-1.99;50.47
32875;BME280;40468;42.128;24.750;2023-02-08T03:34:55;101632.13;;;-2.00;50.51
32875;BME280;40468;42.128;24.750;2023-02-08T03:36:32;101634.72;;;-1.99;50.50
32875;BME280;40468;42.128;24.750;2023-02-08T03:38:09;101637.19;;;-2.02;50.72
32875;BME280;40468;42.128;24.750;2023-02-08T03:39:42;101635.47;;;-2.01;50.65
32875;BME280;40468;42.128;24.750;2023-02-08T03:41:19;101637.25;;;-2.00;50.56
32875;BME280;40468;42.128;24.750;2023-02-08T03:42:56;101642.38;;;-1.99;50.72
32875;BME280;40468;42.128;24.750;2023-02-08T03:44:32;101631.94;;;-2.07;50.76
32875;BME280;40468;42.128;24.750;2023-02-08T03:46:10;101648.09;;;-2.06;50.81
32875;BME280;40468;42.128;24.750;2023-02-08T03:47:45;101640.38;;;-2.08;50.89
32875;BME280;40468;42.128;24.750;2023-02-08T03:49:22;101648.13;;;-2.04;50.82
32875;BME280;40468;42.128;24.750;2023-02-08T03:50:56;101650.53;;;-2.09;50.90
32875;BME280;40468;42.128;24.750;2023-02-08T03:52:31;101642.78;;;-2.12;50.96
32875;BME280;40468;42.128;24.750;2023-02-08T03:54:06;101642.66;;;-2.15;50.98
32875;BME280;40468;42.128;24.750;2023-02-08T03:55:40;101643.44;;;-2.18;51.26
32875;BME280;40468;42.128;24.750;2023-02-08T03:57:16;101642.50;;;-2.20;51.34
32875;BME280;40468;42.128;24.750;2023-02-08T03:58:55;101639.00;;;-2.22;51.31
32875;BME280;40468;42.128;24.750;2023-02-08T04:00:31;101631.91;;;-2.31;51.38
32875;BME280;40468;42.128;24.750;2023-02-08T04:02:08;101649.22;;;-2.22;51.29
32875;BME280;40468;42.128;24.750;2023-02-08T04:03:42;101640.53;;;-2.27;51.10
32875;BME280;40468;42.128;24.750;2023-02-08T04:05:15;101648.41;;;-2.21;51.06
32875;BME280;40468;42.128;24.750;2023-02-08T04:06:47;101652.81;;;-2.17;51.14
32875;BME280;40468;42.128;24.750;2023-02-08T04:08:21;101652.91;;;-2.14;50.88
32875;BME280;40468;42.128;24.750;2023-02-08T04:09:53;101656.34;;;-2.13;51.04
32875;BME280;40468;42.128;24.750;2023-02-08T04:11:25;101656.31;;;-2.15;51.01
32875;BME280;40468;42.128;24.750;2023-02-08T04:12:58;101660.56;;;-2.14;50.95
32875;BME280;40468;42.128;24.750;2023-02-08T04:14:30;101657.22;;;-2.13;50.96
32875;BME280;40468;42.128;24.750;2023-02-08T04:16:01;101657.34;;;-2.10;50.94
32875;BME280;40468;42.128;24.750;2023-02-08T04:17:33;101657.34;;;-2.10;50.85
32875;BME280;40468;42.128;24.750;2023-02-08T04:19:05;101659.00;;;-2.10;50.92
32875;BME280;40468;42.128;24.750;2023-02-08T04:20:37;101660.66;;;-2.12;51.02
32875;BME280;40468;42.128;24.750;2023-02-08T04:22:09;101654.59;;;-2.14;51.09
32875;BME280;40468;42.128;24.750;2023-02-08T04:23:41;101659.69;;;-2.16;51.06
32875;BME280;40468;42.128;24.750;2023-02-08T04:25:13;101657.91;;;-2.17;51.10
32875;BME280;40468;42.128;24.750;2023-02-08T04:26:45;101659.56;;;-2.19;51.09
32875;BME280;40468;42.128;24.750;2023-02-08T04:28:17;101669.06;;;-2.15;50.94
32875;BME280;40468;42.128;24.750;2023-02-08T04:29:49;101679.38;;;-2.12;50.91
32875;BME280;40468;42.128;24.750;2023-02-08T04:31:20;101669.22;;;-2.10;50.92
32875;BME280;40468;42.128;24.750;2023-02-08T04:32:52;101676.06;;;-2.09;50.95
32875;BME280;40468;42.128;24.750;2023-02-08T04:34:24;101675.31;;;-2.07;50.90
32875;BME280;40468;42.128;24.750;2023-02-08T04:35:56;101678.84;;;-2.03;50.67
32875;BME280;40468;42.128;24.750;2023-02-08T04:37:28;101678.84;;;-2.03;50.75
32875;BME280;40468;42.128;24.750;2023-02-08T04:39:02;101682.22;;;-2.04;50.78
32875;BME280;40468;42.128;24.750;2023-02-08T04:40:34;101682.25;;;-2.02;50.58
32875;BME280;40468;42.128;24.750;2023-02-08T04:42:07;101677.91;;;-2.05;50.70
32875;BME280;40468;42.128;24.750;2023-02-08T04:43:39;101688.13;;;-2.05;50.65
32875;BME280;40468;42.128;24.750;2023-02-08T04:45:11;101693.22;;;-2.05;50.55
32875;BME280;40468;42.128;24.750;2023-02-08T04:46:43;101687.25;;;-2.06;50.70
32875;BME280;40468;42.128;24.750;2023-02-08T04:48:14;101693.19;;;-2.07;50.77
32875;BME280;40468;42.128;24.750;2023-02-08T04:49:46;101688.88;;;-2.08;50.68
32875;BME280;40468;42.128;24.750;2023-02-08T04:51:18;101689.00;;;-2.04;50.74
32875;BME280;40468;42.128;24.750;2023-02-08T04:52:50;101703.50;;;-2.03;50.68
32875;BME280;40468;42.128;24.750;2023-02-08T04:54:23;101699.19;;;-2.04;50.74
32875;BME280;40468;42.128;24.750;2023-02-08T04:55:55;101705.03;;;-2.09;50.70
32875;BME280;40468;42.128;24.750;2023-02-08T04:57:27;101706.59;;;-2.12;51.11
32875;BME280;40468;42.128;24.750;2023-02-08T04:59:00;101701.16;;;-2.21;51.04
32875;BME280;40468;42.128;24.750;2023-02-08T05:00:32;101708.97;;;-2.17;50.86
32875;BME280;40468;42.128;24.750;2023-02-08T05:02:04;101714.06;;;-2.17;50.89
32875;BME280;40468;42.128;24.750;2023-02-08T05:03:36;101712.44;;;-2.15;50.91
32875;BME280;40468;42.128;24.750;2023-02-08T05:05:08;101710.66;;;-2.17;50.88
32875;BME280;40468;42.128;24.750;2023-02-08T05:06:40;101714.06;;;-2.17;50.82
32875;BME280;40468;42.128;24.750;2023-02-08T05:08:12;101706.38;;;-2.18;51.13
32875;BME280;40468;42.128;24.750;2023-02-08T05:09:45;101708.00;;;-2.20;51.03
32875;BME280;40468;42.128;24.750;2023-02-08T05:11:19;101713.94;;;-2.20;50.98
32875;BME280;40468;42.128;24.750;2023-02-08T05:12:51;101722.44;;;-2.21;51.03
32875;BME280;40468;42.128;24.750;2023-02-08T05:14:23;101723.31;;;-2.20;51.06
32875;BME280;40468;42.128;24.750;2023-02-08T05:15:55;101725.13;;;-2.16;51.08
32875;BME280;40468;42.128;24.750;2023-02-08T05:17:27;101723.59;;;-2.13;50.91
32875;BME280;40468;42.128;24.750;2023-02-08T05:18:59;101727.28;;;-2.04;50.67
32875;BME280;40468;42.128;24.750;2023-02-08T05:20:31;101720.66;;;-1.99;50.68
32875;BME280;40468;42.128;24.750;2023-02-08T05:22:03;101724.94;;;-1.98;50.49
32875;BME280;40468;42.128;24.750;2023-02-08T05:23:36;101731.00;;;-1.96;50.50
32875;BME280;40468;42.128;24.750;2023-02-08T05:25:10;101721.50;;;-2.00;50.73
32875;BME280;40468;42.128;24.750;2023-02-08T05:26:41;101725.97;;;-1.95;50.52
32875;BME280;40468;42.128;24.750;2023-02-08T05:28:14;101735.34;;;-1.94;50.33
32875;BME280;40468;42.128;24.750;2023-02-08T05:29:45;101731.19;;;-1.92;50.39
32875;BME280;40468;42.128;24.750;2023-02-08T05:31:19;101731.94;;;-1.94;50.48
32875;BME280;40468;42.128;24.750;2023-02-08T05:32:52;101733.53;;;-1.96;50.27
32875;BME280;40468;42.128;24.750;2023-02-08T05:34:23;101727.50;;;-1.98;50.17
32875;BME280;40468;42.128;24.750;2023-02-08T05:35:55;101735.16;;;-1.98;50.39
32875;BME280;40468;42.128;24.750;2023-02-08T05:37:27;101733.44;;;-1.99;50.44
32875;BME280;40468;42.128;24.750;2023-02-08T05:38:59;101741.16;;;-1.98;50.39
32875;BME280;40468;42.128;24.750;2023-02-08T05:40:33;101735.28;;;-1.95;50.38
32875;BME280;40468;42.128;24.750;2023-02-08T05:42:05;101742.16;;;-1.94;50.19
32875;BME280;40468;42.128;24.750;2023-02-08T05:45:43;101752.34;;;-1.94;50.25
32875;BME280;40468;42.128;24.750;2023-02-08T05:47:15;101748.03;;;-1.95;50.25
32875;BME280;40468;42.128;24.750;2023-02-08T05:48:47;101747.25;;;-1.94;50.19
32875;BME280;40468;42.128;24.750;2023-02-08T05:50:19;101741.28;;;-1.95;50.26
32875;BME280;40468;42.128;24.750;2023-02-08T05:51:51;101757.47;;;-1.94;50.40
32875;BME280;40468;42.128;24.750;2023-02-08T05:53:36;101754.16;;;-1.92;50.35
32875;BME280;40468;42.128;24.750;2023-02-08T05:55:08;101743.88;;;-1.93;50.31
32875;BME280;40468;42.128;24.750;2023-02-08T05:56:41;101748.28;;;-1.89;50.27
32875;BME280;40468;42.128;24.750;2023-02-08T05:58:13;101757.63;;;-1.90;50.17
32875;BME280;40468;42.128;24.750;2023-02-08T05:59:45;101758.44;;;-1.91;50.20
32875;BME280;40468;42.128;24.750;2023-02-08T06:01:17;101763.66;;;-1.88;50.24
32875;BME280;40468;42.128;24.750;2023-02-08T06:02:48;101761.94;;;-1.89;50.11
32875;BME280;40468;42.128;24.750;2023-02-08T06:04:20;101768.84;;;-1.86;50.25
32875;BME280;40468;42.128;24.750;2023-02-08T06:05:52;101766.28;;;-1.86;50.04
32875;BME280;40468;42.128;24.750;2023-02-08T06:07:24;101768.13;;;-1.82;50.19
32875;BME280;40468;42.128;24.750;2023-02-08T06:08:56;101769.84;;;-1.81;50.18
32875;BME280;40468;42.128;24.750;2023-02-08T06:10:28;101773.34;;;-1.79;50.14
32875;BME280;40468;42.128;24.750;2023-02-08T06:12:01;101781.19;;;-1.74;50.20
32875;BME280;40468;42.128;24.750;2023-02-08T06:13:33;101782.06;;;-1.74;50.25
32875;BME280;40468;42.128;24.750;2023-02-08T06:15:05;101774.28;;;-1.77;49.96
32875;BME280;40468;42.128;24.750;2023-02-08T06:16:37;101782.28;;;-1.68;49.96
32875;BME280;40468;42.128;24.750;2023-02-08T06:18:09;101789.97;;;-1.66;49.86
32875;BME280;40468;42.128;24.750;2023-02-08T06:19:41;101785.81;;;-1.64;49.84
32875;BME280;40468;42.128;24.750;2023-02-08T06:21:13;101783.34;;;-1.61;49.86
32875;BME280;40468;42.128;24.750;2023-02-08T06:22:45;101781.00;;;-1.56;49.50
32875;BME280;40468;42.128;24.750;2023-02-08T06:24:16;101786.31;;;-1.50;49.71
32875;BME280;40468;42.128;24.750;2023-02-08T06:25:49;101783.91;;;-1.46;49.38
32875;BME280;40468;42.128;24.750;2023-02-08T06:27:22;101780.47;;;-1.46;49.43
32875;BME280;40468;42.128;24.750;2023-02-08T06:28:54;101780.44;;;-1.48;49.47
32875;BME280;40468;42.128;24.750;2023-02-08T06:30:25;101787.19;;;-1.50;49.48
32875;BME280;40468;42.128;24.750;2023-02-08T06:31:57;101785.44;;;-1.51;49.67
32875;BME280;40468;42.128;24.750;2023-02-08T06:33:29;101787.19;;;-1.50;49.38
32875;BME280;40468;42.128;24.750;2023-02-08T06:35:01;101782.94;;;-1.49;49.41
32875;BME280;40468;42.128;24.750;2023-02-08T06:36:33;101784.72;;;-1.47;49.44
32875;BME280;40468;42.128;24.750;2023-02-08T06:38:05;101788.97;;;-1.47;49.42
32875;BME280;40468;42.128;24.750;2023-02-08T06:39:37;101783.97;;;-1.44;49.32
32875;BME280;40468;42.128;24.750;2023-02-08T06:41:08;101788.25;;;-1.43;49.35
32875;BME280;40468;42.128;24.750;2023-02-08T06:42:42;101790.91;;;-1.40;49.40
32875;BME280;40468;42.128;24.750;2023-02-08T06:44:13;101791.00;;;-1.39;49.27
32875;BME280;40468;42.128;24.750;2023-02-08T06:45:46;101790.25;;;-1.36;49.13
32875;BME280;40468;42.128;24.750;2023-02-08T06:47:18;101797.00;;;-1.37;49.20
32875;BME280;40468;42.128;24.750;2023-02-08T06:48:49;101788.47;;;-1.37;49.13
32875;BME280;40468;42.128;24.750;2023-02-08T06:50:21;101791.97;;;-1.35;49.27
32875;BME280;40468;42.128;24.750;2023-02-08T06:51:53;101794.56;;;-1.33;49.26
32875;BME280;40468;42.128;24.750;2023-02-08T06:53:25;101794.56;;;-1.33;49.12
32875;BME280;40468;42.128;24.750;2023-02-08T06:54:57;101795.56;;;-1.30;49.17
32875;BME280;40468;42.128;24.750;2023-02-08T06:56:29;101799.94;;;-1.26;49.01
32875;BME280;40468;42.128;24.750;2023-02-08T06:58:02;101794.94;;;-1.23;49.16
32875;BME280;40468;42.128;24.750;2023-02-08T06:59:34;101798.44;;;-1.21;48.92
32875;BME280;40468;42.128;24.750;2023-02-08T07:01:06;101793.47;;;-1.16;48.92
32875;BME280;40468;42.128;24.750;2023-02-08T07:02:41;101798.66;;;-1.15;48.91
32875;BME280;40468;42.128;24.750;2023-02-08T07:04:13;101801.31;;;-1.11;48.88
32875;BME280;40468;42.128;24.750;2023-02-08T07:05:45;101799.69;;;-1.09;48.78
32875;BME280;40468;42.128;24.750;2023-02-08T07:07:17;101806.56;;;-1.07;48.75
32875;BME280;40468;42.128;24.750;2023-02-08T07:08:49;101801.50;;;-1.05;48.76
32875;BME280;40468;42.128;24.750;2023-02-08T07:10:21;101809.28;;;-1.02;48.52
32875;BME280;40468;42.128;24.750;2023-02-08T07:11:53;101810.22;;;-1.00;48.60
32875;BME280;40468;42.128;24.750;2023-02-08T07:13:26;101811.94;;;-0.99;48.54
32875;BME280;40468;42.128;24.750;2023-02-08T07:14:58;101818.75;;;-1.00;48.34
32875;BME280;40468;42.128;24.750;2023-02-08T07:16:30;101821.41;;;-0.97;48.44
32875;BME280;40468;42.128;24.750;2023-02-08T07:18:02;101816.31;;;-0.97;48.28
32875;BME280;40468;42.128;24.750;2023-02-08T07:19:34;101816.31;;;-0.97;48.45
32875;BME280;40468;42.128;24.750;2023-02-08T07:21:06;101822.28;;;-0.96;48.42
32875;BME280;40468;42.128;24.750;2023-02-08T07:22:38;101823.16;;;-0.96;48.44
32875;BME280;40468;42.128;24.750;2023-02-08T07:24:10;101820.59;;;-0.96;48.39
32875;BME280;40468;42.128;24.750;2023-02-08T07:25:42;101831.75;;;-0.94;48.38
32875;BME280;40468;42.128;24.750;2023-02-08T07:27:15;101831.84;;;-0.90;48.40
32875;BME280;40468;42.128;24.750;2023-02-08T07:28:48;101831.88;;;-0.89;48.42
32875;BME280;40468;42.128;24.750;2023-02-08T07:30:20;101827.59;;;-0.90;48.28
32875;BME280;40468;42.128;24.750;2023-02-08T07:31:52;101825.78;;;-0.94;48.36
32875;BME280;40468;42.128;24.750;2023-02-08T07:33:24;101829.88;;;-0.98;48.28
32875;BME280;40468;42.128;24.750;2023-02-08T07:34:56;101828.16;;;-0.99;48.37
32875;BME280;40468;42.128;24.750;2023-02-08T07:36:28;101837.63;;;-0.96;48.42
32875;BME280;40468;42.128;24.750;2023-02-08T07:38:00;101836.00;;;-0.94;48.36
32875;BME280;40468;42.128;24.750;2023-02-08T07:39:32;101840.25;;;-0.95;48.41
32875;BME280;40468;42.128;24.750;2023-02-08T07:41:05;101842.84;;;-0.93;48.44
32875;BME280;40468;42.128;24.750;2023-02-08T07:42:37;101836.09;;;-0.91;48.38
32875;BME280;40468;42.128;24.750;2023-02-08T07:44:10;101843.88;;;-0.88;48.25
32875;BME280;40468;42.128;24.750;2023-02-08T07:45:43;101849.13;;;-0.83;48.22
32875;BME280;40468;42.128;24.750;2023-02-08T07:47:15;101850.94;;;-0.81;48.26
32875;BME280;40468;42.128;24.750;2023-02-08T07:48:47;101842.50;;;-0.78;48.24
32875;BME280;40468;42.128;24.750;2023-02-08T07:50:19;101844.28;;;-0.76;48.42
32875;BME280;40468;42.128;24.750;2023-02-08T07:51:51;101835.84;;;-0.73;48.12
32875;BME280;40468;42.128;24.750;2023-02-08T07:53:23;101847.06;;;-0.70;47.89
32875;BME280;40468;42.128;24.750;2023-02-08T07:54:55;101837.78;;;-0.66;48.08
32875;BME280;40468;42.128;24.750;2023-02-08T07:56:27;101844.78;;;-0.62;48.03
32875;BME280;40468;42.128;24.750;2023-02-08T07:57:59;101843.22;;;-0.57;48.03
32875;BME280;40468;42.128;24.750;2023-02-08T07:59:32;101847.56;;;-0.54;47.97
32875;BME280;40468;42.128;24.750;2023-02-08T08:01:04;101844.25;;;-0.52;47.97
32875;BME280;40468;42.128;24.750;2023-02-08T08:02:36;101840.91;;;-0.49;47.95
32875;BME280;40468;42.128;24.750;2023-02-08T08:04:08;101841.94;;;-0.44;47.96
32875;BME280;40468;42.128;24.750;2023-02-08T08:05:40;101845.41;;;-0.42;47.82
32875;BME280;40468;42.128;24.750;2023-02-08T08:07:12;101848.88;;;-0.40;47.78
32875;BME280;40468;42.128;24.750;2023-02-08T08:08:44;101847.25;;;-0.38;47.64
32875;BME280;40468;42.128;24.750;2023-02-08T08:10:17;101853.38;;;-0.33;47.58
32875;BME280;40468;42.128;24.750;2023-02-08T08:11:48;101831.25;;;-0.31;47.69